Bookmark and Share
Track history (hours):
 

Isabella

Last reported at 2014-Apr-04 07:24 UTC. Time now 2014-Apr-17 22:01 UTC.
Position N 36°31' E 022°05'.
Warning: this ship's position is 13 days out of date.

Length 244 m; draft 13.6 m.

Type: Tanker. MMSI: 215545000.

NotesDate/timePositionNaut miles runAvg speedWind from/ knotsBaromVisibWave heightAir tempDewpointWater temp
2014-Apr-04 07:24N 36°31' E 022°05'2111.4
2014-Apr-04 05:33N 36°22' E 022°28'2511.2
2014-Apr-04 03:21N 36°26' E 022°58'1311.3
2014-Apr-04 02:09N 36°24' E 023°15'711.1
2014-Apr-04 01:33N 36°23' E 023°23'1111.0
2014-Apr-04 00:33N 36°21' E 023°37'1110.7
2014-Apr-03 23:33N 36°20' E 023°50'1110.6
2014-Apr-03 22:33N 36°19' E 024°03'1010.4
2014-Apr-03 21:33N 36°17' E 024°16'1010.4
2014-Apr-03 20:33N 36°15' E 024°28'1110.5
2014-Apr-03 19:33N 36°14' E 024°41'1110.8
2014-Apr-03 18:34N 36°12' E 024°55'1111.2
2014-Apr-03 17:33N 36°10' E 025°08'1111.4
2014-Apr-03 16:33N 36°10' E 025°22'1111.1
2014-Apr-03 15:33N 36°10' E 025°36'1111.3
2014-Apr-03 14:33N 36°10' E 025°50'1111.4
2014-Apr-03 13:33N 36°10' E 026°04'1111.1
2014-Apr-03 12:33N 36°10' E 026°18'1110.8
2014-Apr-03 11:33N 36°08' E 026°31'1110.9
2014-Apr-03 10:33N 36°05' E 026°44'1110.9
2014-Apr-03 09:33N 36°03' E 026°57'1110.6
2014-Apr-03 08:33N 36°00' E 027°10'2110.4
2014-Apr-03 06:33N 35°50' E 027°33'1110.6
2014-Apr-03 05:33N 35°45' E 027°44'1111.2
2014-Apr-03 04:33N 35°46' E 027°58'1111.3
2014-Apr-03 03:33N 35°46' E 028°12'1111.3
2014-Apr-03 02:33N 35°47' E 028°26'  
2014-Mar-28 07:08N 35°57' E 032°55'26310.3
2014-Mar-27 05:30N 35°52' E 027°30'1010.0
2014-Mar-27 04:30N 35°58' E 027°20'1410.2
2014-Mar-27 03:10N 36°01' E 027°04'2710.1
2014-Mar-27 00:30N 36°09' E 026°32'1010.0
2014-Mar-26 23:30N 36°10' E 026°20'3010.3
2014-Mar-26 20:33N 36°10' E 025°42'1010.0
2014-Mar-26 19:33N 36°10' E 025°30'2010.0
2014-Mar-26 17:33N 36°11' E 025°05'1110.8
2014-Mar-26 16:34N 36°12' E 024°52'1110.7
2014-Mar-26 15:33N 36°14' E 024°39'1110.9
2014-Mar-26 14:33N 36°15' E 024°25'1111.1
2014-Mar-26 13:33N 36°17' E 024°12'  

Dump ship's entire track history

sailing weather and tide predictions

Isabella — 9HSL7 — position and weather